Time;durP1;ratioP1;P1;durP2;ratioP2;P2;SDS_P1;SDS_P2;PMS_P1;PMS_P2;Temp;Humidity;BMP_temperature;BMP_pressure;BME280_temperature;BME280_humidity;BME280_pressure;Samples;Min_cycle;Max_cycle;Signal;HPM_P1;HPM_P2
2022/05/10 00:02:05;;;;;;;4.63;3.25;;;;;;;11.86;66.34;100763.63;10561439;28;20044;-80
2022/05/10 00:07:07;;;;;;;8.13;4.15;;;;;;;11.62;67.58;100764.19;10472661;28;20076;-79
2022/05/10 00:12:09;;;;;;;7.20;4.03;;;;;;;11.51;68.12;100766.19;10556735;28;20032;-79
2022/05/10 00:17:23;;;;;;;6.75;3.67;;;;;;;11.67;68.17;100753.53;10558870;28;20040;-77
2022/05/10 00:22:24;;;;;;;6.13;4.07;;;;;;;11.56;68.43;100759.06;10556353;28;20051;-79
2022/05/10 00:27:26;;;;;;;6.60;4.10;;;;;;;11.56;68.12;100752.03;10469757;28;20070;-79
2022/05/10 00:32:31;;;;;;;6.32;4.40;;;;;;;11.45;68.74;100746.16;10476049;28;20406;-79
2022/05/10 00:37:36;;;;;;;5.28;4.57;;;;;;;11.01;69.80;100748.03;10565070;28;20072;-79
2022/05/10 00:42:55;;;;;;;7.35;5.25;;;;;;;11.02;70.15;100741.91;10478024;28;20044;-79
2022/05/10 00:48:08;;;;;;;6.53;5.82;;;;;;;10.79;71.09;100752.88;10566732;28;20047;-79
2022/05/10 00:53:17;;;;;;;8.80;4.80;;;;;;;11.00;71.05;100737.56;10478684;28;20055;-79
2022/05/10 00:58:44;;;;;;;7.30;5.75;;;;;;;11.17;70.16;100737.19;10565452;28;20052;-80
2022/05/10 01:03:54;;;;;;;;;;;;;;;10.98;70.61;100720.91;10565692;28;20044;-79
2022/05/10 01:09:27;;;;;;;6.85;4.85;;;;;;;10.93;70.58;100731.53;10563724;28;19927;-79
2022/05/10 01:14:35;;;;;;;6.20;4.43;;;;;;;10.89;70.72;100724.66;10464957;28;20052;-79
2022/05/10 01:19:37;;;;;;;8.70;5.82;;;;;;;10.66;71.66;100722.50;10580776;28;20040;-79
2022/05/10 01:24:58;;;;;;;7.50;6.53;;;;;;;10.52;72.29;100719.28;10482883;28;20052;-78
2022/05/10 01:30:14;;;;;;;7.03;5.30;;;;;;;10.72;71.77;100717.13;10482023;28;20027;-78
2022/05/10 01:35:23;;;;;;;5.38;4.47;;;;;;;10.57;72.18;100720.06;10480511;28;20051;-77
2022/05/10 01:40:33;;;;;;;5.57;4.80;;;;;;;10.50;71.97;100715.84;10479398;28;20105;-79
2022/05/10 01:46:02;;;;;;;7.88;4.70;;;;;;;10.35;72.98;100703.88;10478417;28;20044;-79
2022/05/10 01:51:12;;;;;;;6.13;4.82;;;;;;;10.43;72.88;100706.34;10552529;28;20062;-80
2022/05/10 01:56:24;;;;;;;5.15;4.40;;;;;;;10.54;72.43;100704.38;10561439;28;20485;-79
2022/05/10 02:01:38;;;;;;;5.00;3.83;;;;;;;10.46;72.07;100707.16;10562741;28;20040;-79
2022/05/10 02:06:49;;;;;;;5.85;3.08;;;;;;;10.48;71.90;100694.81;10561319;28;20146;-80
2022/05/10 02:11:57;;;;;;;3.90;3.13;;;;;;;10.39;72.63;100697.66;10560728;28;20036;-80
2022/05/10 02:17:07;;;;;;;3.88;3.30;;;;;;;10.32;72.63;100689.03;10560486;28;20044;-80
2022/05/10 02:22:14;;;;;;;5.10;3.53;;;;;;;10.11;73.55;100682.41;10559894;28;20051;-81
2022/05/10 02:27:22;;;;;;;4.57;3.72;;;;;;;9.99;74.89;100690.53;10563386;28;20048;-80
2022/05/10 02:37:53;;;;;;;5.93;3.67;;;;;;;10.38;73.13;100679.28;10474034;28;20055;-80
2022/05/10 02:42:54;;;;;;;6.90;4.03;;;;;;;10.24;72.85;100671.66;10561909;28;20048;-79
2022/05/10 02:47:56;;;;;;;5.63;3.95;;;;;;;10.28;73.25;100668.13;10561214;28;20048;-79
2022/05/10 02:52:57;;;;;;;4.80;4.30;;;;;;;10.21;73.92;100669.94;10558837;28;20040;-81
2022/05/10 02:58:04;;;;;;;5.35;4.30;;;;;;;10.23;74.30;100664.69;10557463;28;20055;-80
2022/05/10 03:03:12;;;;;;;7.13;5.30;;;;;;;10.10;74.41;100664.94;10562269;28;20048;-81
2022/05/10 03:08:13;;;;;;;7.82;4.88;;;;;;;10.05;75.26;100658.03;10562930;28;20049;-81
2022/05/10 03:13:15;;;;;;;9.07;4.88;;;;;;;10.29;74.39;100651.44;10563966;28;20551;-80
2022/05/10 03:18:16;;;;;;;6.10;5.50;;;;;;;10.19;74.28;100657.75;10474656;28;20047;-80
2022/05/10 03:23:18;;;;;;;9.18;5.63;;;;;;;10.09;74.69;100657.94;10559587;28;20128;-78
2022/05/10 03:28:20;;;;;;;7.57;5.97;;;;;;;9.95;75.83;100656.47;10472561;28;20040;-80
2022/05/10 03:33:22;;;;;;;8.15;5.95;;;;;;;9.98;76.17;100653.78;10555411;28;20040;-79
2022/05/10 03:38:24;;;;;;;8.35;6.82;;;;;;;10.20;75.44;100659.47;10557410;28;20109;-80
2022/05/10 03:43:27;;;;;;;9.85;6.88;;;;;;;10.18;75.57;100656.91;10473033;28;20056;-81
2022/05/10 03:48:29;;;;;;;15.93;7.82;;;;;;;10.44;74.87;100659.00;10557863;28;20044;-81
2022/05/10 03:53:30;;;;;;;8.90;7.22;;;;;;;10.44;74.89;100653.72;10469514;28;20040;-80
2022/05/10 03:58:32;;;;;;;9.18;8.20;;;;;;;10.39;75.49;100652.09;10470470;28;20097;-80
2022/05/10 04:03:34;;;;;;;9.13;7.47;;;;;;;10.61;74.85;100648.13;10557695;28;20036;-80
2022/05/10 04:08:36;;;;;;;11.63;7.68;;;;;;;10.71;74.63;100644.38;10477882;28;20502;-80
2022/05/10 04:13:39;;;;;;;9.43;7.47;;;;;;;10.80;74.32;100645.94;10482531;28;20048;-80
2022/05/10 04:18:41;;;;;;;10.40;8.35;;;;;;;10.95;73.71;100647.38;10566289;28;20040;-80
2022/05/10 04:23:42;;;;;;;10.07;8.48;;;;;;;11.07;73.20;100639.19;10476513;28;20055;-80
2022/05/10 04:28:45;;;;;;;10.90;7.88;;;;;;;11.13;73.59;100632.91;10480137;28;20035;-82
2022/05/10 04:33:46;;;;;;;13.75;7.53;;;;;;;11.25;72.44;100635.25;10576607;28;20044;-81
2022/05/10 04:38:49;;;;;;;9.93;6.10;;;;;;;11.39;70.15;100629.63;10568093;28;20044;-81
2022/05/10 04:43:52;;;;;;;10.80;5.05;;;;;;;11.70;69.02;100627.91;10566356;28;20073;-81
2022/05/10 04:48:53;;;;;;;7.85;5.22;;;;;;;12.04;67.07;100630.53;10565988;28;20040;-81
2022/05/10 04:53:56;;;;;;;5.82;4.15;;;;;;;11.97;66.28;100642.13;10566168;28;20048;-80
2022/05/10 04:58:57;;;;;;;5.03;3.88;;;;;;;12.25;65.85;100636.06;10568968;28;20048;-81
2022/05/10 05:04:00;;;;;;;6.43;4.88;;;;;;;12.47;65.37;100638.94;10487107;28;20044;-81
2022/05/10 05:09:02;;;;;;;7.78;4.05;;;;;;;12.59;65.12;100633.28;10568468;28;20048;-79
2022/05/10 05:14:04;;;;;;;4.32;3.58;;;;;;;12.99;62.94;100632.91;10481041;28;20048;-79
2022/05/10 05:19:06;;;;;;;7.05;4.40;;;;;;;13.21;61.98;100637.50;10464076;28;20036;-79
2022/05/10 05:24:11;;;;;;;4.07;3.40;;;;;;;13.56;61.10;100634.56;10567528;28;20113;-78
2022/05/10 05:29:13;;;;;;;5.13;3.58;;;;;;;13.82;59.43;100644.22;10568545;28;20047;-79
2022/05/10 05:34:14;;;;;;;4.25;3.20;;;;;;;14.06;58.77;100637.19;10481829;28;20094;-79
2022/05/10 05:39:16;;;;;;;4.45;3.15;;;;;;;14.01;59.04;100646.19;10510030;28;20060;-79
2022/05/10 05:44:17;;;;;;;9.25;3.40;;;;;;;14.26;57.77;100644.38;10479745;28;20052;-80
2022/05/10 05:49:19;;;;;;;9.52;3.58;;;;;;;14.16;59.30;100639.47;10562712;28;20036;-79
2022/05/10 05:54:20;;;;;;;12.18;3.67;;;;;;;14.81;56.53;100642.28;10564244;28;20393;-77
2022/05/10 05:59:22;;;;;;;6.95;3.50;;;;;;;15.36;54.92;100636.53;10562251;28;20397;-79
2022/05/10 06:04:24;;;;;;;12.05;3.92;;;;;;;15.82;52.72;100621.34;10560329;28;20520;-80
2022/05/10 06:09:25;;;;;;;8.68;3.47;;;;;;;16.64;50.98;100617.56;10559388;28;20047;-80
2022/05/10 06:14:27;;;;;;;6.95;3.55;;;;;;;16.62;51.27;100616.75;10457508;28;20048;-80
2022/05/10 06:19:29;;;;;;;5.68;3.20;;;;;;;17.54;49.44;100614.06;10475255;28;20036;-79
2022/05/10 06:24:31;;;;;;;4.15;3.10;;;;;;;17.93;48.03;100613.81;10474352;28;20501;-79
2022/05/10 06:29:36;;;;;;;8.50;3.72;;;;;;;17.73;49.37;100608.63;10460684;28;20044;-80
2022/05/10 06:34:39;;;;;;;7.13;3.55;;;;;;;18.63;47.17;100601.94;10474911;28;20044;-80
2022/05/10 06:39:41;;;;;;;6.05;2.95;;;;;;;19.09;45.74;100602.03;10561586;28;20047;-80
2022/05/10 06:44:42;;;;;;;9.05;2.78;;;;;;;19.58;45.35;100587.63;10560008;28;20101;-80
2022/05/10 06:49:44;;;;;;;4.05;2.53;;;;;;;19.56;45.40;100597.50;10471763;28;20074;-80
2022/05/10 06:54:48;;;;;;;5.30;3.30;;;;;;;20.06;43.10;100591.78;10561243;28;20036;-79
2022/05/10 06:59:49;;;;;;;5.30;3.00;;;;;;;20.05;44.14;100586.53;10556871;28;20062;-79
2022/05/10 07:04:52;;;;;;;6.40;3.10;;;;;;;20.56;42.47;100577.06;10555135;28;20043;-79
2022/05/10 07:09:54;;;;;;;4.53;2.45;;;;;;;20.39;43.02;100569.25;10558691;28;20040;-79
2022/05/10 07:14:57;;;;;;;5.63;2.72;;;;;;;20.59;43.00;100566.19;10555313;28;20040;-79
2022/05/10 07:20:03;;;;;;;7.10;2.67;;;;;;;21.05;42.03;100563.13;10559601;28;20068;-80
2022/05/10 07:25:05;;;;;;;4.63;2.78;;;;;;;21.22;41.82;100564.69;10556074;28;20055;-78
2022/05/10 07:30:10;;;;;;;6.63;2.38;;;;;;;21.52;41.38;100572.47;10468049;28;20047;-79
2022/05/10 07:35:12;;;;;;;4.95;2.33;;;;;;;21.74;40.42;100565.63;10454568;28;20052;-79
2022/05/10 07:40:14;;;;;;;5.85;2.60;;;;;;;21.77;40.83;100570.75;10450502;28;20059;-79
2022/05/10 07:45:15;;;;;;;4.22;2.50;;;;;;;22.17;40.74;100560.78;10471998;28;20040;-80
2022/05/10 07:50:17;;;;;;;6.50;2.47;;;;;;;22.74;38.82;100564.69;10586433;28;20095;-81
2022/05/10 07:55:19;;;;;;;7.22;3.88;;;;;;;23.08;38.56;100560.38;10581650;28;20044;-81
2022/05/10 08:00:20;;;;;;;4.78;2.85;;;;;;;23.00;40.31;100552.91;10575027;28;20051;-81
2022/05/10 08:05:26;;;;;;;8.10;3.10;;;;;;;23.08;39.94;100550.50;10557747;28;20082;-81
2022/05/10 08:10:27;;;;;;;5.45;2.75;;;;;;;23.29;38.43;100541.81;10554024;28;20044;-79
2022/05/10 08:15:30;;;;;;;10.18;2.78;;;;;;;23.30;39.79;100539.00;10554963;28;20048;-81
2022/05/10 08:20:31;;;;;;;4.70;2.15;;;;;;;23.79;38.83;100534.34;10551841;28;20040;-81
2022/05/10 08:25:34;;;;;;;9.30;2.83;;;;;;;24.41;37.44;100532.00;10559284;28;20048;-80
2022/05/10 08:30:36;;;;;;;5.03;2.47;;;;;;;24.50;38.27;100525.03;10571491;28;20066;-80
2022/05/10 08:35:37;;;;;;;5.47;2.33;;;;;;;24.53;38.07;100524.78;10565385;28;20052;-80
2022/05/10 08:40:43;;;;;;;5.13;2.50;;;;;;;24.78;37.65;100512.81;10469241;28;20078;-80
2022/05/10 08:45:45;;;;;;;8.98;2.65;;;;;;;25.02;37.38;100515.31;10493597;28;20040;-81
2022/05/10 08:50:48;;;;;;;7.35;2.50;;;;;;;25.51;37.53;100516.50;10579590;28;20146;-78
2022/05/10 08:55:56;;;;;;;7.70;2.42;;;;;;;25.25;36.84;100510.69;10589917;28;20036;-80
2022/05/10 09:01:00;;;;;;;6.10;2.20;;;;;;;25.36;37.63;100510.59;10506596;28;20056;-80
2022/05/10 09:06:11;;;;;;;4.70;2.50;;;;;;;25.16;37.63;100500.72;10591347;28;20121;-81
2022/05/10 09:11:14;;;;;;;3.28;2.40;;;;;;;24.66;39.79;100492.38;10583294;28;20048;-81
2022/05/10 09:16:16;;;;;;;5.03;2.00;;;;;;;25.12;39.13;100493.88;10484071;28;20056;-81
2022/05/10 09:21:39;;;;;;;3.85;2.53;;;;;;;25.17;38.87;100489.81;10483071;28;20040;-82
2022/05/10 09:26:46;;;;;;;6.10;2.40;;;;;;;25.61;38.63;100482.41;10565918;28;20093;-80
2022/05/10 09:37:20;;;;;;;5.82;2.38;;;;;;;25.93;39.83;100462.56;10566107;28;20048;-80
2022/05/10 09:42:28;;;;;;;3.33;2.05;;;;;;;25.51;39.44;100462.69;10567139;28;20048;-81
2022/05/10 09:47:30;;;;;;;2.88;2.20;;;;;;;26.31;39.07;100450.19;10479390;28;20078;-80
2022/05/10 09:52:31;;;;;;;9.75;2.20;;;;;;;27.07;37.69;100453.03;10487222;28;20040;-80
2022/05/10 09:57:39;;;;;;;6.40;2.58;;;;;;;26.74;37.13;100441.72;10572785;28;20051;-79
2022/05/10 10:02:42;;;;;;;3.25;2.33;;;;;;;25.58;37.80;100452.22;10466747;28;20066;-80
2022/05/10 10:07:55;;;;;;;4.45;2.50;;;;;;;25.62;39.42;100443.72;10569923;28;20048;-81
2022/05/10 10:12:57;;;;;;;2.42;2.08;;;;;;;25.84;36.77;100437.31;10481637;28;20040;-81
2022/05/10 10:18:04;;;;;;;3.30;1.90;;;;;;;25.30;38.58;100433.09;10569548;28;20044;-81
2022/05/10 10:23:18;;;;;;;5.68;2.10;;;;;;;24.89;39.81;100425.88;10566676;28;20036;-81
2022/05/10 10:28:41;;;;;;;4.75;2.00;;;;;;;25.85;38.68;100420.19;10567284;28;20059;-81
2022/05/10 10:33:50;;;;;;;3.35;1.70;;;;;;;25.72;37.64;100415.97;10567868;28;20081;-81
2022/05/10 10:39:23;;;;;;;2.88;2.20;;;;;;;26.19;35.71;100394.72;10568013;28;20044;-81
2022/05/10 10:44:30;;;;;;;8.50;1.90;;;;;;;26.46;34.98;100400.28;10564588;28;20421;-81
2022/05/10 10:49:52;;;;;;;2.67;1.67;;;;;;;25.73;37.18;100394.31;10480326;28;20402;-81
2022/05/10 10:54:53;;;;;;;3.75;1.80;;;;;;;26.35;34.04;100389.63;10576716;28;20048;-83
2022/05/10 11:00:03;;;;;;;2.60;1.70;;;;;;;26.49;34.09;100393.78;10569763;28;20040;-82
2022/05/10 11:05:18;;;;;;;1.60;1.50;;;;;;;26.21;34.61;100372.03;10482086;28;20052;-82
2022/05/10 11:10:25;;;;;;;5.05;2.60;;;;;;;26.69;36.38;100376.56;10481569;28;20055;-82
2022/05/10 11:15:38;;;;;;;2.70;1.65;;;;;;;26.58;33.95;100372.19;10480050;28;20082;-82
2022/05/10 11:21:06;;;;;;;3.15;1.50;;;;;;;27.82;34.01;100378.34;10477493;28;20444;-81
2022/05/10 11:26:13;;;;;;;4.47;1.33;;;;;;;27.75;31.55;100369.16;10463710;28;20052;-81
2022/05/10 11:31:15;;;;;;;4.07;1.35;;;;;;;27.43;31.54;100367.72;10564653;28;20040;-81
2022/05/10 11:36:42;;;;;;;3.15;1.30;;;;;;;27.19;32.18;100364.72;10477787;28;20078;-82
2022/05/10 11:42:21;;;;;;;2.90;1.42;;;;;;;26.79;33.61;100350.47;10566553;28;20048;-82
2022/05/10 11:48:05;;;;;;;3.40;1.58;;;;;;;27.19;31.87;100340.44;10483534;28;20069;-82
2022/05/10 11:53:24;;;;;;;1.30;1.20;;;;;;;27.31;31.77;100334.66;10568955;28;20051;-82
2022/05/10 11:58:29;;;;;;;2.58;1.33;;;;;;;27.83;32.21;100326.03;10568053;28;20051;-81
2022/05/10 12:03:36;;;;;;;3.42;1.60;;;;;;;27.39;30.88;100323.97;10573472;28;20044;-81
2022/05/10 12:08:38;;;;;;;2.77;1.30;;;;;;;27.26;31.80;100312.69;10482327;28;20070;-81
2022/05/10 12:24:48;;;;;;;3.80;1.38;;;;;;;27.30;32.11;100297.88;10443273;28;20048;-81
2022/05/10 12:29:52;;;;;;;3.20;1.27;;;;;;;27.49;30.38;100288.81;10586054;28;20036;-81
2022/05/10 12:34:59;;;;;;;2.33;1.17;;;;;;;27.98;30.48;100291.19;10494417;28;20055;-81
2022/05/10 12:40:16;;;;;;;3.15;1.52;;;;;;;27.34;31.42;100282.25;10585485;28;20073;-81
2022/05/10 12:45:40;;;;;;;3.03;1.23;;;;;;;27.69;31.55;100273.34;10581799;28;20052;-80
2022/05/10 12:50:54;;;;;;;4.03;1.37;;;;;;;27.51;30.92;100270.63;10579897;28;20070;-82
2022/05/10 12:56:27;;;;;;;2.95;1.55;;;;;;;27.12;33.06;100257.34;10583493;28;20044;-80
2022/05/10 13:01:33;;;;;;;3.17;1.27;;;;;;;27.33;30.63;100256.25;10410063;28;20100;-80
2022/05/10 13:06:48;;;;;;;2.30;1.20;;;;;;;27.51;32.40;100242.78;10415367;28;20057;-80
2022/05/10 13:11:52;;;;;;;;;;;;;;;27.54;31.67;100231.69;10399282;28;20080;-82
2022/05/10 13:16:54;;;;;;;2.15;1.50;;;;;;;27.63;31.43;100225.38;10412401;28;19925;-81
2022/05/10 13:21:58;;;;;;;2.03;1.25;;;;;;;27.80;31.10;100215.56;10414495;28;20041;-81
2022/05/10 13:27:02;;;;;;;2.97;1.80;;;;;;;27.59;32.18;100216.72;10412348;28;20057;-81
2022/05/10 13:32:10;;;;;;;2.75;1.65;;;;;;;27.44;30.71;100198.50;10392556;28;20050;-81
2022/05/10 13:37:22;;;;;;;2.65;1.55;;;;;;;27.53;31.63;100194.88;10502937;28;20052;-82
2022/05/10 13:42:23;;;;;;;2.67;1.60;;;;;;;27.89;30.69;100185.78;10571470;28;20047;-81
2022/05/10 13:47:31;;;;;;;1.55;1.30;;;;;;;27.69;31.21;100177.97;10571331;28;20044;-81
2022/05/10 13:52:44;;;;;;;1.83;1.50;;;;;;;27.10;32.05;100174.88;10568987;28;20511;-80
2022/05/10 13:57:56;;;;;;;1.65;1.27;;;;;;;27.13;31.23;100170.00;10566145;28;20405;-82
2022/05/10 14:02:58;;;;;;;3.20;1.50;;;;;;;26.87;32.54;100171.69;10481361;28;20115;-82
2022/05/10 14:08:12;;;;;;;1.65;1.23;;;;;;;26.70;32.23;100167.97;10559368;28;20040;-79
2022/05/10 14:13:21;;;;;;;3.60;1.20;;;;;;;26.77;32.18;100170.91;10558400;28;20047;-80
2022/05/10 14:18:39;;;;;;;2.55;1.40;;;;;;;26.31;33.25;100151.91;10477371;28;20043;-81
2022/05/10 14:23:41;;;;;;;3.28;1.50;;;;;;;25.93;33.52;100147.47;10562485;28;20397;-80
2022/05/10 14:28:53;;;;;;;2.10;1.38;;;;;;;25.99;33.61;100144.22;10558956;28;20051;-80
2022/05/10 14:33:56;;;;;;;1.40;1.30;;;;;;;25.90;34.95;100129.75;10559902;28;20048;-79
2022/05/10 14:38:58;;;;;;;3.17;1.17;;;;;;;26.03;33.64;100125.88;10560077;28;20043;-79
2022/05/10 14:44:11;;;;;;;2.78;1.35;;;;;;;25.76;34.24;100115.84;10560071;28;20047;-80
2022/05/10 14:49:32;;;;;;;4.75;1.55;;;;;;;26.16;33.86;100110.25;10560908;28;20040;-81
2022/05/10 14:54:36;;;;;;;2.13;1.60;;;;;;;26.40;33.59;100107.06;10562091;28;20052;-81
2022/05/10 14:59:53;;;;;;;3.53;1.20;;;;;;;26.36;33.38;100103.81;10559728;28;20040;-79
2022/05/10 15:04:56;;;;;;;2.45;1.40;;;;;;;25.66;34.28;100105.09;10477586;28;20058;-82
2022/05/10 15:09:58;;;;;;;3.90;1.50;;;;;;;25.39;35.32;100103.16;10557654;28;20047;-79
2022/05/10 15:15:05;;;;;;;3.80;1.67;;;;;;;25.96;34.80;100092.47;10472060;28;20036;-81
2022/05/10 15:20:07;;;;;;;5.93;1.70;;;;;;;25.41;34.87;100096.66;10554028;28;20048;-80
2022/05/10 15:25:08;;;;;;;2.95;1.88;;;;;;;25.21;34.38;100086.00;10554958;28;20051;-80
2022/05/10 15:30:13;;;;;;;3.25;1.45;;;;;;;25.41;34.96;100074.25;10553966;28;20048;-80
2022/05/10 15:35:15;;;;;;;1.40;1.30;;;;;;;25.35;35.75;100075.66;10554658;28;20043;-79
2022/05/10 15:40:19;;;;;;;3.40;1.23;;;;;;;25.34;34.72;100071.28;10552228;28;20378;-78
2022/05/10 15:45:22;;;;;;;2.63;1.40;;;;;;;25.14;35.63;100065.03;10551377;28;20178;-79
2022/05/10 15:50:27;;;;;;;1.55;1.45;;;;;;;25.51;35.52;100067.03;10552918;28;20456;-80
2022/05/10 15:55:28;;;;;;;2.47;1.17;;;;;;;25.37;34.88;100068.31;10553112;28;20078;-80
2022/05/10 16:00:30;;;;;;;6.25;2.00;;;;;;;25.15;36.03;100063.22;10554215;28;20044;-81
2022/05/10 16:05:39;;;;;;;5.85;1.65;;;;;;;24.98;35.54;100055.81;10553311;28;20471;-81
2022/05/10 16:10:43;;;;;;;4.10;1.77;;;;;;;24.83;36.58;100048.16;10551607;28;20062;-80
2022/05/10 16:15:44;;;;;;;2.88;1.95;;;;;;;24.93;35.82;100048.19;10463365;28;20109;-80
2022/05/10 16:20:48;;;;;;;2.05;1.40;;;;;;;24.85;36.51;100048.03;10446439;28;20047;-80
2022/05/10 16:25:50;;;;;;;3.00;1.48;;;;;;;25.03;35.62;100040.97;10548453;28;20040;-80
2022/05/10 16:30:51;;;;;;;2.13;1.70;;;;;;;25.01;36.19;100039.38;10548386;28;20445;-80
2022/05/10 16:35:57;;;;;;;2.15;1.42;;;;;;;25.08;36.52;100025.28;10462435;28;20047;-80
2022/05/10 16:40:58;;;;;;;4.50;2.33;;;;;;;24.82;37.11;100029.47;10549709;28;20032;-80
2022/05/10 16:46:00;;;;;;;2.88;1.67;;;;;;;24.48;36.65;100032.56;10550829;28;20052;-81
2022/05/10 16:51:03;;;;;;;3.35;1.85;;;;;;;24.45;36.58;100022.06;10550737;28;20039;-80
2022/05/10 16:56:04;;;;;;;2.70;1.67;;;;;;;24.37;36.93;100014.69;10550613;28;20040;-80
2022/05/10 17:01:06;;;;;;;2.22;1.60;;;;;;;24.64;36.81;100014.03;10548468;28;20066;-81
2022/05/10 17:06:07;;;;;;;2.42;1.50;;;;;;;24.54;37.39;100009.66;10550739;28;20040;-79
2022/05/10 17:11:09;;;;;;;2.75;1.83;;;;;;;24.37;37.48;100008.47;10550877;28;20117;-80
2022/05/10 17:16:10;;;;;;;3.28;1.70;;;;;;;24.24;37.44;100002.47;10558786;28;20074;-79
2022/05/10 17:21:12;;;;;;;1.75;1.60;;;;;;;24.22;36.83;99994.56;10470440;28;20044;-81
2022/05/10 17:26:15;;;;;;;1.55;1.45;;;;;;;24.37;36.77;100003.09;10560827;28;20449;-78
2022/05/10 17:31:16;;;;;;;1.67;1.55;;;;;;;24.28;38.74;100006.59;10582036;28;20494;-78
2022/05/10 17:36:18;;;;;;;2.35;2.10;;;;;;;23.91;40.42;99997.28;10494292;28;20074;-77
2022/05/10 17:41:20;;;;;;;2.45;1.90;;;;;;;23.69;41.53;99985.88;10579147;28;20089;-77
2022/05/10 17:46:22;;;;;;;3.88;2.60;;;;;;;23.49;42.60;99991.09;10580669;28;20044;-78
2022/05/10 17:51:25;;;;;;;4.45;4.10;;;;;;;23.40;42.29;99982.00;10581477;28;20048;-78
2022/05/10 17:56:28;;;;;;;4.40;4.10;;;;;;;23.37;42.17;99987.66;10580529;28;20040;-79
2022/05/10 18:01:31;;;;;;;6.93;3.40;;;;;;;23.30;42.88;99985.63;10572918;28;20100;-80
2022/05/10 18:06:33;;;;;;;3.30;2.78;;;;;;;23.12;43.74;99985.34;10564566;28;20151;-79
2022/05/10 18:11:34;;;;;;;3.78;2.65;;;;;;;22.98;44.72;99991.03;10478459;28;20058;-81
2022/05/10 18:16:36;;;;;;;3.33;2.97;;;;;;;22.80;45.75;99988.88;10485568;28;20043;-83
2022/05/10 18:21:38;;;;;;;3.83;2.92;;;;;;;22.55;46.80;99991.88;10566995;28;20459;-81
2022/05/10 18:26:39;;;;;;;2.83;2.38;;;;;;;22.45;45.64;99997.16;10562267;28;20044;-81
2022/05/10 18:31:42;;;;;;;3.35;2.40;;;;;;;22.34;47.03;99998.00;10562353;28;20041;-80
2022/05/10 18:36:43;;;;;;;3.40;3.10;;;;;;;22.27;47.17;100003.97;10569908;28;20044;-82
2022/05/10 18:41:45;;;;;;;3.83;2.80;;;;;;;22.17;47.85;99999.38;10483222;28;20143;-81
2022/05/10 18:46:53;;;;;;;5.60;3.85;;;;;;;22.01;49.01;100001.56;10568962;28;20092;-81
2022/05/10 18:51:55;;;;;;;6.93;3.50;;;;;;;21.88;49.10;99995.50;10567387;28;20047;-82
2022/05/10 18:56:56;;;;;;;7.30;3.78;;;;;;;21.70;49.25;99991.59;10568576;28;20059;-80
2022/05/10 19:01:58;;;;;;;3.50;3.25;;;;;;;21.53;50.17;100003.63;10567918;28;20043;-81
2022/05/10 19:07:00;;;;;;;4.57;3.47;;;;;;;21.41;51.02;100000.91;10481471;28;20359;-80
2022/05/10 19:12:03;;;;;;;6.10;3.95;;;;;;;21.30;50.80;99995.50;10566730;28;20492;-81
2022/05/10 19:17:05;;;;;;;10.52;6.05;;;;;;;21.13;51.71;99995.94;10568005;28;20096;-82
2022/05/10 19:22:06;;;;;;;4.38;3.20;;;;;;;21.08;51.61;100000.81;10571148;28;20570;-81
2022/05/10 19:27:08;;;;;;;4.45;4.05;;;;;;;20.97;51.70;100003.41;10568863;28;20048;-79
2022/05/10 19:32:10;;;;;;;4.70;4.13;;;;;;;20.87;52.00;100011.28;10564869;28;20044;-79
2022/05/10 19:37:13;;;;;;;4.65;3.88;;;;;;;20.82;52.47;100013.44;10462329;28;20070;-80
2022/05/10 19:42:14;;;;;;;5.93;3.85;;;;;;;20.76;52.20;100013.88;10481358;28;20435;-82
2022/05/10 19:47:16;;;;;;;4.88;4.18;;;;;;;20.72;52.00;100021.28;10571347;28;20044;-82
2022/05/10 19:52:18;;;;;;;4.10;3.70;;;;;;;20.63;52.41;100020.16;10567253;28;20044;-82
2022/05/10 19:57:19;;;;;;;5.00;4.50;;;;;;;20.58;52.91;100016.09;10577970;28;20048;-78
2022/05/10 20:07:43;;;;;;;4.20;3.75;;;;;;;20.44;52.06;100022.41;10470025;28;20070;-85
2022/05/10 20:12:46;;;;;;;4.35;3.83;;;;;;;20.29;51.54;100024.41;10550589;28;20032;-85
2022/05/10 20:17:49;;;;;;;4.85;3.33;;;;;;;20.42;50.34;100025.22;10445402;28;20048;-84
2022/05/10 20:22:54;;;;;;;6.85;3.42;;;;;;;20.24;51.34;100021.22;10461017;28;20135;-84
2022/05/10 20:27:57;;;;;;;6.88;3.63;;;;;;;20.14;51.57;100022.81;10460495;28;20036;-84
2022/05/10 20:32:59;;;;;;;4.55;4.15;;;;;;;20.05;51.62;100024.31;10466810;28;20489;-85
2022/05/10 20:38:00;;;;;;;6.43;4.72;;;;;;;19.91;51.38;100022.63;10443573;28;20051;-86
2022/05/10 20:43:02;;;;;;;4.50;4.10;;;;;;;19.74;52.25;100022.13;10542679;28;20044;-84
2022/05/10 20:48:05;;;;;;;4.43;4.03;;;;;;;19.74;51.45;100012.31;10443797;28;20048;-84
2022/05/10 20:53:08;;;;;;;5.22;3.83;;;;;;;19.58;51.47;100017.84;10533114;28;20040;-85
2022/05/10 20:58:10;;;;;;;4.00;3.67;;;;;;;19.48;51.69;100016.78;10464350;28;20132;-85
2022/05/10 21:03:12;;;;;;;4.25;3.83;;;;;;;19.48;51.23;100008.78;10468418;28;20158;-84
2022/05/10 21:08:27;;;;;;;4.97;3.63;;;;;;;19.37;51.55;100020.16;10463314;28;20047;-84
2022/05/10 21:13:30;;;;;;;4.57;3.50;;;;;;;19.46;50.82;100010.69;10556299;28;20040;-84
2022/05/10 21:18:51;;;;;;;3.83;3.15;;;;;;;19.45;50.40;100010.78;10518070;28;20032;-83
2022/05/10 21:24:11;;;;;;;3.20;2.83;;;;;;;19.48;50.11;100007.91;10520815;28;20040;-84
2022/05/10 21:34:57;;;;;;;3.60;3.08;;;;;;;19.32;49.87;100000.97;10500070;28;20086;-85
2022/05/10 21:40:00;;;;;;;3.55;3.25;;;;;;;19.36;50.24;99998.94;10485295;28;20040;-85
2022/05/10 21:45:02;;;;;;;3.50;3.20;;;;;;;19.35;49.93;99997.25;10451549;28;20044;-85
2022/05/10 21:50:07;;;;;;;6.25;3.38;;;;;;;19.16;50.65;99994.97;10553669;28;20071;-85
2022/05/10 21:55:10;;;;;;;5.93;3.58;;;;;;;19.25;50.37;99994.34;10449746;28;20410;-85
2022/05/10 22:00:23;;;;;;;3.00;2.60;;;;;;;19.01;50.65;99996.00;10465555;28;20222;-85
2022/05/10 22:05:24;;;;;;;3.30;2.95;;;;;;;19.12;49.94;99975.69;10466915;28;20493;-85
2022/05/10 22:10:26;;;;;;;2.70;2.50;;;;;;;19.06;50.37;99994.75;10451662;28;20044;-85
2022/05/10 22:15:29;;;;;;;4.38;2.55;;;;;;;19.11;50.18;99992.63;10469074;28;20117;-84
2022/05/10 22:20:31;;;;;;;3.00;2.80;;;;;;;19.02;50.25;99990.56;10477593;28;20093;-84
2022/05/10 22:25:32;;;;;;;3.55;3.25;;;;;;;18.88;50.88;99986.19;10460369;28;20044;-84
2022/05/10 22:30:34;;;;;;;4.30;3.90;;;;;;;18.88;50.84;99980.00;10458589;28;20493;-84
2022/05/10 22:35:36;;;;;;;4.35;3.95;;;;;;;18.93;50.70;99977.88;10562221;28;20044;-84
2022/05/10 22:40:38;;;;;;;4.63;4.22;;;;;;;18.79;51.07;99984.13;10457461;28;20048;-84
2022/05/10 22:45:39;;;;;;;5.03;4.15;;;;;;;18.87;50.78;99972.97;10472076;28;20237;-84
2022/05/10 22:50:41;;;;;;;3.53;3.22;;;;;;;18.90;50.96;99970.09;10478257;28;20074;-84
2022/05/10 22:55:43;;;;;;;3.55;3.25;;;;;;;18.77;51.56;99969.19;10492315;28;20109;-84
2022/05/10 23:00:45;;;;;;;3.30;2.90;;;;;;;18.84;51.22;99965.19;10563453;28;20096;-84
2022/05/10 23:05:47;;;;;;;4.90;3.83;;;;;;;18.71;51.59;99961.63;10473603;28;20044;-84
2022/05/10 23:10:48;;;;;;;3.40;3.13;;;;;;;18.75;51.30;99963.97;10476281;28;20109;-84
2022/05/10 23:15:50;;;;;;;3.40;3.10;;;;;;;18.81;50.98;99955.56;10458007;28;20052;-84
2022/05/10 23:20:51;;;;;;;3.63;2.80;;;;;;;18.84;51.40;99959.84;10457682;28;20051;-84
2022/05/10 23:25:53;;;;;;;5.10;3.10;;;;;;;18.86;51.62;99948.16;10461207;28;20097;-84
2022/05/10 23:30:54;;;;;;;3.97;3.00;;;;;;;18.77;51.43;99947.91;10476040;28;20048;-84
2022/05/10 23:35:57;;;;;;;3.83;3.33;;;;;;;18.83;51.61;99940.38;10476758;28;20109;-84
2022/05/10 23:40:59;;;;;;;3.83;3.40;;;;;;;18.73;51.48;99933.97;10459566;28;20047;-84
2022/05/10 23:46:00;;;;;;;3.83;3.50;;;;;;;18.77;51.42;99931.91;10459262;28;20075;-84
2022/05/10 23:51:02;;;;;;;3.30;3.00;;;;;;;18.73;51.88;99927.78;10471275;28;20031;-84
2022/05/10 23:56:05;;;;;;;4.30;3.28;;;;;;;18.59;51.87;99921.53;10582415;28;20043;-84
